Trenton Mercer Airport
KTTN : rendu visible

Aérodrome :











RETROUVEZ-NOUS SUR...

 
LOGIN :

S'inscrire | Disclaimer

   EN    FR    IT 

 









Légende :    VFR   VFR Marginal   IFR   IFR Intensif   IFR Très Intensif
Visi : 
Plafond : 
>= 8 km
>= 3000ft
5 à 8 km
1000 à 3000 ft
1500m à 5 km
500 à 1000 ft
800 à 1500m
200 à 500 ft
< 800m
< 200 ft
Symboles :   Orages  Brouillard  Fortes neiges  Fortes précipitations  Vent > 20 kt






- Altitude de l'aérodrome : 213 ft
- Code IATA : TTN


KTTN - Trenton Mercer

DERNIER METAR :
  • 120453Z AUTO 18005KT 10SM CLR 11/08 A2979 RMK AO2 SLP082 T01060083 401720017

METARs EXPIRÉS :
  • 120353Z AUTO 18007KT 10SM CLR 11/08 A2981 RMK AO2 SLP089 T01060083
  • 120253Z 17005KT 10SM CLR 10/07 A2985 RMK AO2 SLP103 T01000072 58009

TAF KTTN
Valide du 12 à 06h jusqu'au 13 à 06h UTC


120525Z 1206/1306 18008KT P6SM BKN150 WS020/23035KT
TEMPO 1209/1211 4SM -SHRA OVC025
FM121100 28010KT P6SM OVC040
TEMPO 1211/1213 4SM -RA OVC025
FM121300 30011KT 6SM BR VCSH OVC020
TEMPO 1213/1215 4SM -RA OVC025
FM121500 32012G19KT P6SM OVC050
FM122000 33015G25KT P6SM SCT150
FM130100 33012G20KT P6SM SKC



MET'MAP, la Météo Aéronautique d'un coup d'oeil ! - Copyright ORBIFLY Décembre 2007 - Disclaimer

ORBIFLY MET'MAP TEAM :

Programmation & Développement : Alexandra Zaïnal
Conception & Développement : Baudouin d'Aumeries
Co-Programmation & Développement : Marc-Olivier Méhu
Soutien technique & logistique : Manuel Goepfert

Contact : metmap@orbifly.com




SOURCES & CREDITS :

   NOAA       Earth
Advisory